CEB256 RPVP-RPLL
Flight info
| Callsign | CEB256 |
|---|---|
| Flight time | 1h 3m |
| Altitude | 35000 |
| Route | DAB1 DABOY W281 LEGED N884 LUBAN LUBAN1A |
| Aircraft | T154/M-SDGRWY/S |
Departure
| Time | 2026-04-30 12:07 |
|---|---|
| Airport | Puerto Princesa International Airport / PAF Antonio Bautista Air Base (RPVP) |
Arrival
| Time | 2026-04-30 13:10 |
|---|---|
| Airport | Ninoy Aquino International Airport (RPLL) |
| Time | Latitude | Longitude | Altitude | Speed | Heading |
|---|---|---|---|---|---|
| 2026-04-30 11:59 | 9.74507 | 118.74946 | 79 ft | 0 kts | 2° |
| 2026-04-30 11:59 | 9.74500 | 118.74945 | 79 ft | 2 kts | 2° |
| 2026-04-30 12:00 | 9.74485 | 118.74944 | 79 ft | 2 kts | 2° |
| 2026-04-30 12:00 | 9.74470 | 118.74944 | 79 ft | 2 kts | 2° |
| 2026-04-30 12:00 | 9.74454 | 118.74943 | 79 ft | 2 kts | 2° |
| 2026-04-30 12:00 | 9.74442 | 118.74943 | 79 ft | 0 kts | 2° |
| 2026-04-30 12:01 | 9.74429 | 118.74944 | 79 ft | 2 kts | 334° |
| 2026-04-30 12:01 | 9.74419 | 118.74954 | 79 ft | 2 kts | 300° |
| 2026-04-30 12:01 | 9.74416 | 118.74963 | 79 ft | 0 kts | 276° |
| 2026-04-30 12:01 | 9.74416 | 118.74960 | 79 ft | 0 kts | 276° |
| 2026-04-30 12:02 | 9.74416 | 118.74954 | 79 ft | 0 kts | 273° |
| 2026-04-30 12:03 | 9.74417 | 118.74942 | 79 ft | 3 kts | 274° |
| 2026-04-30 12:03 | 9.74420 | 118.74899 | 79 ft | 7 kts | 272° |
| 2026-04-30 12:04 | 9.74423 | 118.74841 | 79 ft | 8 kts | 272° |
| 2026-04-30 12:04 | 9.74424 | 118.74777 | 79 ft | 9 kts | 267° |
| 2026-04-30 12:04 | 9.74398 | 118.74718 | 79 ft | 9 kts | 214° |
| 2026-04-30 12:04 | 9.74334 | 118.74706 | 79 ft | 6 kts | 180° |
| 2026-04-30 12:05 | 9.74289 | 118.74707 | 79 ft | 6 kts | 166° |
| 2026-04-30 12:05 | 9.74260 | 118.74739 | 79 ft | 6 kts | 104° |
| 2026-04-30 12:05 | 9.74256 | 118.74771 | 79 ft | 0 kts | 93° |
| 2026-04-30 12:05 | 9.74256 | 118.74777 | 79 ft | 9 kts | 93° |
| 2026-04-30 12:06 | 9.74242 | 118.75079 | 79 ft | 76 kts | 92° |
| 2026-04-30 12:06 | 9.74211 | 118.75813 | 79 ft | 131 kts | 92° |
| 2026-04-30 12:06 | 9.74153 | 118.76817 | 286 ft | 146 kts | 91° |
| 2026-04-30 12:06 | 9.74117 | 118.77871 | 596 ft | 150 kts | 88° |
| 2026-04-30 12:07 | 9.74158 | 118.78897 | 996 ft | 148 kts | 82° |
| 2026-04-30 12:07 | 9.74590 | 118.79813 | 1279 ft | 149 kts | 39° |
| 2026-04-30 12:07 | 9.75596 | 118.80149 | 1450 ft | 163 kts | 4° |
| 2026-04-30 12:07 | 9.76821 | 118.80087 | 1483 ft | 183 kts | 354° |
| 2026-04-30 12:08 | 9.78090 | 118.79670 | 1653 ft | 207 kts | 324° |
| 2026-04-30 12:08 | 9.78936 | 118.78433 | 2145 ft | 226 kts | 285° |
| 2026-04-30 12:08 | 9.78875 | 118.76836 | 2852 ft | 236 kts | 250° |
| 2026-04-30 12:08 | 9.78231 | 118.75337 | 3585 ft | 237 kts | 259° |
| 2026-04-30 12:09 | 9.78228 | 118.73683 | 4215 ft | 238 kts | 292° |
| 2026-04-30 12:09 | 9.79079 | 118.72297 | 4911 ft | 232 kts | 323° |
| 2026-04-30 12:09 | 9.80329 | 118.71288 | 5594 ft | 232 kts | 339° |
| 2026-04-30 12:09 | 9.81899 | 118.70972 | 6046 ft | 237 kts | 9° |
| 2026-04-30 12:10 | 9.83532 | 118.71268 | 6705 ft | 241 kts | 15° |
| 2026-04-30 12:10 | 9.85207 | 118.71617 | 7352 ft | 249 kts | 13° |
| 2026-04-30 12:10 | 9.86910 | 118.71926 | 8048 ft | 256 kts | 13° |
| 2026-04-30 12:10 | 9.88695 | 118.72247 | 8806 ft | 263 kts | 13° |
| 2026-04-30 12:11 | 9.90490 | 118.72572 | 9570 ft | 267 kts | 13° |
| 2026-04-30 12:11 | 9.92390 | 118.72920 | 9997 ft | 288 kts | 13° |
| 2026-04-30 12:11 | 9.94467 | 118.73302 | 10247 ft | 313 kts | 13° |
| 2026-04-30 12:11 | 9.96687 | 118.73705 | 10615 ft | 331 kts | 12° |
| 2026-04-30 12:12 | 9.98979 | 118.74120 | 11112 ft | 342 kts | 12° |
| 2026-04-30 12:12 | 10.01363 | 118.74551 | 11717 ft | 350 kts | 12° |
| 2026-04-30 12:12 | 10.03792 | 118.74991 | 12337 ft | 356 kts | 12° |
| 2026-04-30 12:12 | 10.06224 | 118.75433 | 12988 ft | 361 kts | 13° |
| 2026-04-30 12:13 | 10.08718 | 118.75887 | 13646 ft | 365 kts | 12° |
| 2026-04-30 12:13 | 10.11241 | 118.76345 | 14266 ft | 370 kts | 12° |
| 2026-04-30 12:13 | 10.13789 | 118.76804 | 14780 ft | 377 kts | 13° |
| 2026-04-30 12:13 | 10.16400 | 118.77277 | 15349 ft | 381 kts | 13° |
| 2026-04-30 12:14 | 10.19038 | 118.77755 | 15947 ft | 385 kts | 13° |
| 2026-04-30 12:14 | 10.21657 | 118.78231 | 16553 ft | 387 kts | 13° |
| 2026-04-30 12:14 | 10.24324 | 118.78716 | 17173 ft | 388 kts | 12° |
| 2026-04-30 12:14 | 10.27001 | 118.79204 | 17787 ft | 390 kts | 12° |
| 2026-04-30 12:15 | 10.29686 | 118.79693 | 18408 ft | 391 kts | 12° |
| 2026-04-30 12:15 | 10.32339 | 118.80177 | 19020 ft | 392 kts | 12° |
| 2026-04-30 12:15 | 10.35036 | 118.80668 | 19631 ft | 392 kts | 12° |
| 2026-04-30 12:15 | 10.37739 | 118.81161 | 20229 ft | 393 kts | 12° |
| 2026-04-30 12:16 | 10.40410 | 118.81646 | 20811 ft | 394 kts | 12° |
| 2026-04-30 12:16 | 10.43151 | 118.81983 | 21407 ft | 396 kts | 6° |
| 2026-04-30 12:16 | 10.45920 | 118.82139 | 21989 ft | 397 kts | 5° |
| 2026-04-30 12:16 | 10.48695 | 118.82301 | 22572 ft | 398 kts | 5° |
| 2026-04-30 12:17 | 10.54222 | 118.82677 | 23714 ft | 400 kts | 5° |
| 2026-04-30 12:17 | 10.57018 | 118.82873 | 24283 ft | 401 kts | 5° |
| 2026-04-30 12:17 | 10.59784 | 118.83066 | 24835 ft | 403 kts | 5° |
| 2026-04-30 12:18 | 10.62603 | 118.83263 | 25330 ft | 406 kts | 5° |
| 2026-04-30 12:18 | 10.65459 | 118.83464 | 25726 ft | 412 kts | 5° |
| 2026-04-30 12:18 | 10.68349 | 118.83667 | 26151 ft | 416 kts | 5° |
| 2026-04-30 12:18 | 10.71225 | 118.83869 | 26596 ft | 420 kts | 5° |
| 2026-04-30 12:19 | 10.73959 | 118.84061 | 27032 ft | 422 kts | 5° |
| 2026-04-30 12:19 | 10.76914 | 118.84268 | 27506 ft | 425 kts | 5° |
| 2026-04-30 12:19 | 10.79448 | 118.84446 | 27913 ft | 427 kts | 4° |
| 2026-04-30 12:19 | 10.79984 | 118.84483 | 27999 ft | 427 kts | 4° |
| 2026-04-30 12:20 | 10.82973 | 118.84693 | 28474 ft | 429 kts | 4° |
| 2026-04-30 12:20 | 10.85978 | 118.84905 | 28969 ft | 432 kts | 4° |
| 2026-04-30 12:20 | 10.88998 | 118.85117 | 29460 ft | 434 kts | 5° |
| 2026-04-30 12:20 | 10.91996 | 118.85327 | 29934 ft | 436 kts | 5° |
| 2026-04-30 12:21 | 10.95047 | 118.85541 | 30407 ft | 438 kts | 5° |
| 2026-04-30 12:21 | 10.98116 | 118.85757 | 30873 ft | 441 kts | 5° |
| 2026-04-30 12:21 | 11.01159 | 118.85972 | 31325 ft | 443 kts | 5° |
| 2026-04-30 12:21 | 11.04274 | 118.86191 | 31647 ft | 449 kts | 5° |
| 2026-04-30 12:22 | 11.07434 | 118.86414 | 31930 ft | 456 kts | 5° |
| 2026-04-30 12:22 | 11.10593 | 118.86636 | 32228 ft | 461 kts | 5° |
| 2026-04-30 12:22 | 11.13861 | 118.86865 | 32401 ft | 470 kts | 5° |
| 2026-04-30 12:22 | 11.17164 | 118.87096 | 32689 ft | 476 kts | 5° |
| 2026-04-30 12:23 | 11.20455 | 118.87327 | 33034 ft | 480 kts | 5° |
| 2026-04-30 12:23 | 11.23821 | 118.87563 | 33401 ft | 484 kts | 5° |
| 2026-04-30 12:23 | 11.27173 | 118.87800 | 33776 ft | 488 kts | 5° |
| 2026-04-30 12:23 | 11.30600 | 118.88041 | 33992 ft | 494 kts | 5° |
| 2026-04-30 12:24 | 11.34078 | 118.88287 | 34148 ft | 501 kts | 5° |
| 2026-04-30 12:24 | 11.37548 | 118.88531 | 34356 ft | 506 kts | 5° |
| 2026-04-30 12:24 | 11.41112 | 118.88783 | 34475 ft | 511 kts | 5° |
| 2026-04-30 12:24 | 11.44677 | 118.89033 | 34454 ft | 510 kts | 5° |
| 2026-04-30 12:25 | 11.51741 | 118.89531 | 34411 ft | 507 kts | 5° |
| 2026-04-30 12:25 | 11.58729 | 118.90025 | 34382 ft | 499 kts | 5° |
| 2026-04-30 12:26 | 11.65631 | 118.90511 | 34367 ft | 492 kts | 5° |
| 2026-04-30 12:26 | 11.72425 | 118.90992 | 34363 ft | 486 kts | 5° |
| 2026-04-30 12:27 | 11.79176 | 118.91470 | 34179 ft | 487 kts | 5° |
| 2026-04-30 12:27 | 11.85928 | 118.91947 | 34213 ft | 484 kts | 5° |
| 2026-04-30 12:28 | 11.92646 | 118.92423 | 34243 ft | 482 kts | 4° |
| 2026-04-30 12:28 | 11.99355 | 118.92897 | 34265 ft | 480 kts | 4° |
| 2026-04-30 12:29 | 12.06026 | 118.93370 | 34268 ft | 479 kts | 4° |
| 2026-04-30 12:29 | 12.12711 | 118.93843 | 34206 ft | 480 kts | 4° |
| 2026-04-30 12:30 | 12.19384 | 118.94314 | 34231 ft | 479 kts | 4° |
| 2026-04-30 12:30 | 12.26014 | 118.94784 | 34255 ft | 477 kts | 4° |
| 2026-04-30 12:31 | 12.32631 | 118.95253 | 34265 ft | 477 kts | 4° |
| 2026-04-30 12:31 | 12.39295 | 118.95726 | 34269 ft | 476 kts | 4° |
| 2026-04-30 12:32 | 12.45894 | 118.96195 | 34271 ft | 476 kts | 4° |
| 2026-04-30 12:32 | 12.52543 | 118.96668 | 34272 ft | 476 kts | 4° |
| 2026-04-30 12:33 | 12.59148 | 118.97137 | 34273 ft | 476 kts | 4° |
| 2026-04-30 12:33 | 12.65812 | 118.97612 | 34273 ft | 477 kts | 4° |
| 2026-04-30 12:34 | 12.72450 | 118.98084 | 34276 ft | 477 kts | 4° |
| 2026-04-30 12:34 | 12.79074 | 118.98556 | 34273 ft | 477 kts | 4° |
| 2026-04-30 12:35 | 12.85705 | 118.99029 | 34273 ft | 477 kts | 4° |
| 2026-04-30 12:35 | 12.92353 | 118.99503 | 34272 ft | 478 kts | 4° |
| 2026-04-30 12:36 | 12.98977 | 119.00097 | 34242 ft | 478 kts | 13° |
| 2026-04-30 12:36 | 13.02063 | 119.01275 | 34278 ft | 475 kts | 31° |
| 2026-04-30 12:36 | 13.04695 | 119.03325 | 34273 ft | 472 kts | 48° |
| 2026-04-30 12:37 | 13.08578 | 119.08695 | 34311 ft | 470 kts | 55° |
| 2026-04-30 12:37 | 13.12528 | 119.14016 | 34243 ft | 472 kts | 53° |
| 2026-04-30 12:38 | 13.16580 | 119.19347 | 34255 ft | 472 kts | 53° |
| 2026-04-30 12:38 | 13.20588 | 119.24638 | 34264 ft | 472 kts | 53° |
| 2026-04-30 12:39 | 13.24626 | 119.29971 | 34261 ft | 473 kts | 53° |
| 2026-04-30 12:39 | 13.28658 | 119.35301 | 34257 ft | 473 kts | 53° |
| 2026-04-30 12:40 | 13.32686 | 119.40630 | 34257 ft | 473 kts | 53° |
| 2026-04-30 12:40 | 13.34680 | 119.43269 | 34147 ft | 469 kts | 53° |
| 2026-04-30 12:40 | 13.36687 | 119.45924 | 33700 ft | 468 kts | 53° |
| 2026-04-30 12:41 | 13.38690 | 119.48577 | 33042 ft | 470 kts | 53° |
| 2026-04-30 12:41 | 13.40686 | 119.51222 | 32282 ft | 475 kts | 53° |
| 2026-04-30 12:41 | 13.42693 | 119.53883 | 31736 ft | 475 kts | 53° |
| 2026-04-30 12:41 | 13.44723 | 119.56571 | 31308 ft | 472 kts | 53° |
| 2026-04-30 12:42 | 13.46711 | 119.59206 | 30911 ft | 468 kts | 53° |
| 2026-04-30 12:42 | 13.48706 | 119.61852 | 30509 ft | 464 kts | 53° |
| 2026-04-30 12:42 | 13.50684 | 119.64476 | 30000 ft | 463 kts | 53° |
| 2026-04-30 12:42 | 13.52631 | 119.67068 | 29414 ft | 463 kts | 53° |
| 2026-04-30 12:43 | 13.54605 | 119.69707 | 28790 ft | 463 kts | 53° |
| 2026-04-30 12:43 | 13.56547 | 119.72297 | 28276 ft | 461 kts | 53° |
| 2026-04-30 12:43 | 13.58503 | 119.74899 | 27786 ft | 457 kts | 53° |
| 2026-04-30 12:43 | 13.60443 | 119.77478 | 27319 ft | 453 kts | 53° |
| 2026-04-30 12:44 | 13.62364 | 119.80032 | 26869 ft | 448 kts | 53° |
| 2026-04-30 12:44 | 13.64237 | 119.82522 | 26441 ft | 443 kts | 53° |
| 2026-04-30 12:44 | 13.66114 | 119.85017 | 26018 ft | 437 kts | 53° |
| 2026-04-30 12:44 | 13.67971 | 119.87488 | 25456 ft | 436 kts | 53° |
| 2026-04-30 12:45 | 13.69800 | 119.89922 | 24814 ft | 435 kts | 53° |
| 2026-04-30 12:45 | 13.71650 | 119.92384 | 24198 ft | 433 kts | 53° |
| 2026-04-30 12:45 | 13.73488 | 119.94831 | 23608 ft | 430 kts | 53° |
| 2026-04-30 12:45 | 13.75310 | 119.97257 | 23035 ft | 426 kts | 53° |
| 2026-04-30 12:46 | 13.77088 | 119.99625 | 22482 ft | 421 kts | 53° |
| 2026-04-30 12:46 | 13.78871 | 120.02000 | 21931 ft | 416 kts | 53° |
| 2026-04-30 12:46 | 13.80632 | 120.04347 | 21389 ft | 411 kts | 53° |
| 2026-04-30 12:46 | 13.82347 | 120.06634 | 20840 ft | 406 kts | 53° |
| 2026-04-30 12:47 | 13.84067 | 120.08928 | 20280 ft | 402 kts | 53° |
| 2026-04-30 12:47 | 13.86065 | 120.10916 | 19668 ft | 400 kts | 34° |
| 2026-04-30 12:47 | 13.88537 | 120.12219 | 19088 ft | 397 kts | 23° |
| 2026-04-30 12:47 | 13.91053 | 120.13274 | 18523 ft | 393 kts | 24° |
| 2026-04-30 12:48 | 13.93563 | 120.14380 | 17984 ft | 388 kts | 25° |
| 2026-04-30 12:48 | 13.96010 | 120.15485 | 17662 ft | 378 kts | 25° |
| 2026-04-30 12:48 | 13.98385 | 120.16556 | 17172 ft | 374 kts | 25° |
| 2026-04-30 12:48 | 14.00769 | 120.17630 | 16731 ft | 369 kts | 25° |
| 2026-04-30 12:49 | 14.03116 | 120.18687 | 16334 ft | 364 kts | 25° |
| 2026-04-30 12:49 | 14.05398 | 120.19717 | 15908 ft | 359 kts | 25° |
| 2026-04-30 12:49 | 14.07687 | 120.20750 | 15461 ft | 356 kts | 25° |
| 2026-04-30 12:49 | 14.09955 | 120.21773 | 15025 ft | 352 kts | 25° |
| 2026-04-30 12:50 | 14.12190 | 120.22777 | 14499 ft | 353 kts | 25° |
| 2026-04-30 12:50 | 14.14453 | 120.23790 | 13946 ft | 352 kts | 25° |
| 2026-04-30 12:50 | 14.16707 | 120.24803 | 13407 ft | 351 kts | 25° |
| 2026-04-30 12:50 | 14.18951 | 120.25815 | 12889 ft | 349 kts | 25° |
| 2026-04-30 12:51 | 14.21148 | 120.26812 | 12391 ft | 347 kts | 25° |
| 2026-04-30 12:51 | 14.23342 | 120.27812 | 12101 ft | 335 kts | 25° |
| 2026-04-30 12:51 | 14.25454 | 120.28775 | 11710 ft | 327 kts | 25° |
| 2026-04-30 12:51 | 14.27498 | 120.29708 | 11244 ft | 322 kts | 25° |
| 2026-04-30 12:52 | 14.29540 | 120.30636 | 10819 ft | 315 kts | 25° |
| 2026-04-30 12:52 | 14.31513 | 120.31530 | 10612 ft | 302 kts | 26° |
| 2026-04-30 12:52 | 14.33408 | 120.32384 | 10438 ft | 289 kts | 25° |
| 2026-04-30 12:52 | 14.35200 | 120.33189 | 10244 ft | 278 kts | 26° |
| 2026-04-30 12:53 | 14.36736 | 120.34319 | 9983 ft | 265 kts | 52° |
| 2026-04-30 12:53 | 14.37793 | 120.35828 | 9842 ft | 253 kts | 58° |
| 2026-04-30 12:53 | 14.38697 | 120.37331 | 9633 ft | 246 kts | 59° |
| 2026-04-30 12:53 | 14.39592 | 120.38853 | 9234 ft | 251 kts | 59° |
| 2026-04-30 12:54 | 14.40499 | 120.40408 | 8860 ft | 254 kts | 59° |
| 2026-04-30 12:54 | 14.41398 | 120.41958 | 8542 ft | 255 kts | 59° |
| 2026-04-30 12:54 | 14.42305 | 120.43525 | 8331 ft | 251 kts | 59° |
| 2026-04-30 12:54 | 14.43191 | 120.45061 | 8145 ft | 246 kts | 59° |
| 2026-04-30 12:55 | 14.44061 | 120.46573 | 7976 ft | 241 kts | 59° |
| 2026-04-30 12:55 | 14.44895 | 120.48022 | 7925 ft | 235 kts | 60° |
| 2026-04-30 12:55 | 14.45736 | 120.49479 | 7930 ft | 235 kts | 60° |
| 2026-04-30 12:55 | 14.46577 | 120.50931 | 7953 ft | 234 kts | 60° |
| 2026-04-30 12:56 | 14.47402 | 120.52354 | 7967 ft | 233 kts | 60° |
| 2026-04-30 12:56 | 14.48235 | 120.53796 | 7980 ft | 232 kts | 59° |
| 2026-04-30 12:56 | 14.49071 | 120.55250 | 7881 ft | 238 kts | 59° |
| 2026-04-30 12:56 | 14.49914 | 120.56717 | 7825 ft | 241 kts | 60° |
| 2026-04-30 12:57 | 14.50767 | 120.58208 | 7846 ft | 240 kts | 60° |
| 2026-04-30 12:57 | 14.51615 | 120.59689 | 7894 ft | 238 kts | 60° |
| 2026-04-30 12:57 | 14.52448 | 120.61143 | 7883 ft | 238 kts | 59° |
| 2026-04-30 12:57 | 14.53295 | 120.62620 | 7873 ft | 238 kts | 59° |
| 2026-04-30 12:58 | 14.54142 | 120.64100 | 7864 ft | 238 kts | 59° |
| 2026-04-30 12:58 | 14.54978 | 120.65559 | 7847 ft | 238 kts | 60° |
| 2026-04-30 12:58 | 14.55821 | 120.67043 | 7837 ft | 234 kts | 60° |
| 2026-04-30 12:58 | 14.56622 | 120.68455 | 7901 ft | 227 kts | 60° |
| 2026-04-30 12:59 | 14.57421 | 120.69862 | 7866 ft | 225 kts | 60° |
| 2026-04-30 12:59 | 14.58209 | 120.71252 | 7595 ft | 225 kts | 60° |
| 2026-04-30 12:59 | 14.58994 | 120.72652 | 7118 ft | 231 kts | 60° |
| 2026-04-30 12:59 | 14.59529 | 120.74222 | 6613 ft | 237 kts | 87° |
| 2026-04-30 13:00 | 14.59192 | 120.75868 | 6168 ft | 243 kts | 117° |
| 2026-04-30 13:00 | 14.58034 | 120.77152 | 5748 ft | 249 kts | 147° |
| 2026-04-30 13:00 | 14.56367 | 120.77677 | 5354 ft | 254 kts | 178° |
| 2026-04-30 13:00 | 14.54647 | 120.77364 | 5028 ft | 253 kts | 197° |
| 2026-04-30 13:01 | 14.52987 | 120.76763 | 4724 ft | 250 kts | 199° |
| 2026-04-30 13:01 | 14.51350 | 120.76135 | 4375 ft | 250 kts | 199° |
| 2026-04-30 13:01 | 14.49707 | 120.75504 | 3947 ft | 252 kts | 199° |
| 2026-04-30 13:01 | 14.48078 | 120.74877 | 3562 ft | 252 kts | 199° |
| 2026-04-30 13:02 | 14.46427 | 120.74241 | 3199 ft | 251 kts | 199° |
| 2026-04-30 13:02 | 14.44820 | 120.73622 | 3077 ft | 239 kts | 199° |
| 2026-04-30 13:02 | 14.43277 | 120.73135 | 2882 ft | 230 kts | 188° |
| 2026-04-30 13:02 | 14.41729 | 120.73260 | 2646 ft | 216 kts | 152° |
| 2026-04-30 13:03 | 14.40650 | 120.74196 | 2593 ft | 193 kts | 115° |
| 2026-04-30 13:03 | 14.40362 | 120.75426 | 2537 ft | 169 kts | 89° |
| 2026-04-30 13:03 | 14.40349 | 120.76636 | 2490 ft | 169 kts | 88° |
| 2026-04-30 13:03 | 14.40349 | 120.77838 | 2527 ft | 168 kts | 88° |
| 2026-04-30 13:04 | 14.40349 | 120.79055 | 2562 ft | 168 kts | 88° |
| 2026-04-30 13:04 | 14.40348 | 120.80259 | 2578 ft | 169 kts | 89° |
| 2026-04-30 13:04 | 14.40384 | 120.81475 | 2594 ft | 171 kts | 79° |
| 2026-04-30 13:04 | 14.40601 | 120.82687 | 2637 ft | 172 kts | 78° |
| 2026-04-30 13:05 | 14.40882 | 120.83886 | 2661 ft | 174 kts | 72° |
| 2026-04-30 13:05 | 14.41339 | 120.85075 | 2557 ft | 181 kts | 64° |
| 2026-04-30 13:05 | 14.41964 | 120.86229 | 2500 ft | 179 kts | 59° |
| 2026-04-30 13:06 | 14.43152 | 120.88200 | 2533 ft | 140 kts | 59° |
| 2026-04-30 13:06 | 14.43637 | 120.89046 | 2380 ft | 136 kts | 60° |
| 2026-04-30 13:06 | 14.44108 | 120.89885 | 2238 ft | 133 kts | 60° |
| 2026-04-30 13:06 | 14.44572 | 120.90721 | 2074 ft | 133 kts | 61° |
| 2026-04-30 13:07 | 14.45034 | 120.91548 | 1898 ft | 134 kts | 60° |
| 2026-04-30 13:07 | 14.45500 | 120.92387 | 1723 ft | 134 kts | 60° |
| 2026-04-30 13:07 | 14.45968 | 120.93217 | 1546 ft | 135 kts | 60° |
| 2026-04-30 13:07 | 14.46437 | 120.94053 | 1369 ft | 135 kts | 60° |
| 2026-04-30 13:08 | 14.46915 | 120.94898 | 1199 ft | 135 kts | 61° |
| 2026-04-30 13:08 | 14.47385 | 120.95744 | 1025 ft | 136 kts | 60° |
| 2026-04-30 13:08 | 14.47866 | 120.96591 | 846 ft | 137 kts | 63° |
| 2026-04-30 13:08 | 14.48336 | 120.97452 | 681 ft | 137 kts | 61° |
| 2026-04-30 13:09 | 14.48833 | 120.98308 | 500 ft | 138 kts | 60° |
| 2026-04-30 13:09 | 14.49311 | 120.99156 | 323 ft | 138 kts | 63° |
| 2026-04-30 13:09 | 14.49779 | 121.00014 | 139 ft | 136 kts | 62° |
| 2026-04-30 13:09 | 14.50228 | 121.00813 | 86 ft | 110 kts | 63° |
| 2026-04-30 13:10 | 14.50510 | 121.01321 | 85 ft | 59 kts | 60° |
| 2026-04-30 13:10 | 14.50643 | 121.01560 | 85 ft | 31 kts | 60° |
| 2026-04-30 13:10 | 14.50777 | 121.01726 | 85 ft | 29 kts | 40° |
| 2026-04-30 13:10 | 14.50877 | 121.01807 | 85 ft | 11 kts | 38° |
| 2026-04-30 13:11 | 14.50931 | 121.01835 | 85 ft | 7 kts | 2° |
| 2026-04-30 13:11 | 14.50957 | 121.01834 | 85 ft | 3 kts | 351° |
| 2026-04-30 13:11 | 14.50976 | 121.01823 | 85 ft | 4 kts | 322° |
| 2026-04-30 13:11 | 14.50997 | 121.01789 | 85 ft | 7 kts | 281° |
| 2026-04-30 13:12 | 14.50988 | 121.01724 | 85 ft | 11 kts | 264° |
| 2026-04-30 13:12 | 14.51027 | 121.01646 | 85 ft | 14 kts | 317° |
| 2026-04-30 13:12 | 14.51102 | 121.01569 | 85 ft | 13 kts | 314° |
| 2026-04-30 13:13 | 14.51168 | 121.01501 | 85 ft | 3 kts | 314° |
| 2026-04-30 13:13 | 14.51187 | 121.01480 | 85 ft | 4 kts | 314° |
| 2026-04-30 13:13 | 14.51214 | 121.01453 | 85 ft | 0 kts | 314° |